Time;durP1;ratioP1;P1;durP2;ratioP2;P2;SDS_P1;SDS_P2;PMS_P1;PMS_P2;Temp;Humidity;BMP_temperature;BMP_pressure;BME280_temperature;BME280_humidity;BME280_pressure;Samples;Min_cycle;Max_cycle;Signal;HPM_P1;HPM_P2
2022/10/05 00:02:32;;;;;;;3.10;2.90;;;6.40;99.90;7.30;97752.00;;;;5040743;28;20205;-87
2022/10/05 00:05:27;;;;;;;5.77;2.87;;;6.40;99.90;7.20;97750.00;;;;5036764;28;20922;-87
2022/10/05 00:08:22;;;;;;;4.50;3.00;;;6.30;99.90;7.10;97742.00;;;;5046581;28;20204;-87
2022/10/05 00:11:14;;;;;;;2.83;2.47;;;6.30;99.90;7.00;97740.00;;;;5051280;28;20609;-88
2022/10/05 00:14:15;;;;;;;4.87;2.80;;;6.20;99.90;6.90;97739.00;;;;5050226;28;20197;-87
2022/10/05 00:17:05;;;;;;;3.73;2.47;;;6.20;99.90;7.00;97754.00;;;;5032434;28;20201;-87
2022/10/05 00:19:54;;;;;;;4.97;3.30;;;6.10;99.90;7.10;97753.00;;;;5039467;28;20208;-87
2022/10/05 00:22:43;;;;;;;5.00;3.23;;;6.80;99.90;6.90;97772.00;;;;5046516;28;20215;-87
2022/10/05 00:25:33;;;;;;;3.53;3.03;;;6.10;99.90;6.70;97753.00;;;;5046670;28;20673;-87
2022/10/05 00:28:26;;;;;;;5.13;3.50;;;6.00;99.90;6.90;97765.00;;;;5038896;28;20957;-88
2022/10/05 00:31:19;;;;;;;5.37;3.47;;;5.90;99.90;7.20;97780.00;;;;5050598;28;20233;-88
2022/10/05 00:34:08;;;;;;;3.17;2.60;;;6.00;99.90;7.30;97765.00;;;;5039449;28;20217;-88
2022/10/05 00:36:57;;;;;;;4.07;2.60;;;7.10;99.90;7.20;97770.00;;;;5040517;28;20581;-86
2022/10/05 00:39:46;;;;;;;4.33;2.70;;;6.70;99.90;6.90;97774.00;;;;5038661;28;20208;-86
2022/10/05 00:42:49;;;;;;;5.53;4.43;;;6.00;99.90;6.80;97760.00;;;;5051195;28;20200;-88
2022/10/05 00:45:43;;;;;;;2.70;2.50;;;6.00;99.90;6.60;97768.00;;;;5037842;28;20663;-87
2022/10/05 00:48:40;;;;;;;3.03;2.67;;;5.90;99.90;6.40;97761.00;;;;5043711;28;20197;-87
2022/10/05 00:51:30;;;;;;;2.97;2.70;;;5.90;99.90;6.70;97752.00;;;;5050702;28;20298;-87
2022/10/05 00:54:28;;;;;;;2.63;2.10;;;5.80;99.90;6.60;97751.00;;;;5039217;28;20212;-87
2022/10/05 00:57:36;;;;;;;2.63;2.40;;;5.80;99.90;6.30;97746.00;;;;5055882;28;20289;-87
2022/10/05 01:00:27;;;;;;;4.73;2.63;;;5.80;99.90;6.30;97746.00;;;;5063626;28;20541;-87
2022/10/05 01:03:24;;;;;;;1.90;1.80;;;5.80;99.90;6.20;97745.00;;;;5075428;28;20219;-87
2022/10/05 01:06:22;;;;;;;3.27;2.60;;;5.70;99.90;6.40;97759.00;;;;5065972;28;20193;-87
2022/10/05 01:09:22;;;;;;;3.07;2.77;;;5.60;99.90;6.80;97755.00;;;;5054218;28;20266;-86
2022/10/05 01:12:21;;;;;;;4.80;3.03;;;6.10;99.90;7.00;97749.00;;;;5036832;28;20239;-87
2022/10/05 01:15:16;;;;;;;8.53;2.63;;;6.50;99.90;6.90;97746.00;;;;5048697;28;20702;-87
2022/10/05 01:18:16;;;;;;;4.30;2.87;;;6.00;99.90;6.40;97736.00;;;;5035562;28;20250;-86
2022/10/05 01:21:14;;;;;;;3.23;2.50;;;6.00;99.90;6.20;97736.00;;;;5042791;28;20749;-87
2022/10/05 01:24:50;;;;;;;2.93;2.63;;;5.70;99.90;6.30;97747.00;;;;5041787;28;20211;-87
2022/10/05 01:27:49;;;;;;;2.30;2.10;;;5.60;99.90;6.70;97753.00;;;;5038699;28;20566;-87
2022/10/05 01:30:45;;;;;;;2.83;2.57;;;7.00;99.90;6.70;97746.00;;;;5041150;28;20228;-87
2022/10/05 01:33:42;;;;;;;5.17;2.90;;;5.60;99.90;6.90;97738.00;;;;5042360;28;20255;-85
2022/10/05 01:36:42;;;;;;;3.20;2.90;;;5.70;99.90;6.90;97750.00;;;;5041484;28;20205;-86
2022/10/05 01:39:46;;;;;;;3.80;2.47;;;6.00;99.90;6.70;97740.00;;;;5037321;28;20577;-86
2022/10/05 01:42:49;;;;;;;2.77;2.47;;;5.70;99.90;6.50;97747.00;;;;5049411;28;20197;-88
2022/10/05 01:45:50;;;;;;;2.20;1.97;;;5.70;99.90;6.30;97729.00;;;;5035316;28;20276;-87
2022/10/05 01:48:57;;;;;;;2.37;2.17;;;5.50;99.90;6.40;97728.00;;;;5040832;28;20562;-87
2022/10/05 01:51:58;;;;;;;7.67;3.10;;;6.20;99.90;6.50;97729.00;;;;5046400;28;20239;-86
2022/10/05 01:55:04;;;;;;;3.53;3.23;;;6.40;99.90;6.30;97727.00;;;;5048723;28;20205;-87
2022/10/05 01:58:08;;;;;;;7.47;2.40;;;5.90;99.90;6.00;97723.00;;;;5048521;28;20616;-86
2022/10/05 02:01:06;;;;;;;9.40;2.93;;;6.20;99.90;6.30;97727.00;;;;5033125;28;20356;-87
2022/10/05 02:04:03;;;;;;;5.03;2.97;;;5.30;99.90;6.20;97733.00;;;;5036607;28;20212;-87
2022/10/05 02:06:53;;;;;;;7.20;4.10;;;5.50;99.90;6.30;97745.00;;;;5034078;28;20777;-86
2022/10/05 02:09:48;;;;;;;2.50;2.30;;;5.90;99.90;6.10;97740.00;;;;5048113;28;20314;-86
2022/10/05 02:12:38;;;;;;;4.57;3.07;;;5.70;99.90;5.90;97725.00;;;;5041159;28;20212;-87
2022/10/05 02:15:36;;;;;;;4.00;2.83;;;5.70;99.90;6.10;97732.00;;;;5040381;28;20208;-88
2022/10/05 02:18:32;;;;;;;4.37;3.10;;;5.20;99.90;6.30;97724.00;;;;5039131;28;20209;-88
2022/10/05 02:21:22;;;;;;;3.30;3.00;;;5.30;99.90;6.60;97723.00;;;;5046232;28;20270;-88
2022/10/05 02:24:18;;;;;;;3.73;2.70;;;5.60;99.90;6.70;97728.00;;;;5052095;28;20255;-87
2022/10/05 02:27:11;;;;;;;2.90;2.60;;;7.00;99.90;6.30;97721.00;;;;5048550;28;20727;-88
2022/10/05 02:30:04;;;;;;;6.97;3.10;;;5.20;99.90;6.00;97729.00;;;;5045958;28;20214;-88
2022/10/05 02:33:00;;;;;;;3.85;3.22;;;5.20;99.90;6.00;97716.00;;;;5056072;28;20443;-88
2022/10/05 02:35:49;;;;;;;3.73;3.07;;;5.50;99.90;6.10;97714.00;;;;5052715;28;20255;-87
2022/10/05 02:38:51;;;;;;;2.87;2.30;;;5.20;99.90;6.30;97719.00;;;;5042476;28;20283;-88
2022/10/05 02:41:51;;;;;;;2.53;2.30;;;5.80;99.90;6.30;97712.00;;;;5048159;28;20239;-88
2022/10/05 02:44:55;;;;;;;5.97;2.37;;;6.60;99.90;6.40;97707.00;;;;5048876;28;20220;-87
2022/10/05 02:47:56;;;;;;;3.80;2.60;;;5.30;99.90;6.10;97702.00;;;;5043103;28;20200;-89
2022/10/05 02:50:54;;;;;;;3.00;2.70;;;3.90;99.90;6.00;97698.00;;;;5057110;28;20353;-88
2022/10/05 02:53:59;;;;;;;3.07;2.80;;;6.10;99.90;5.70;97697.00;;;;5056942;28;20225;-88
2022/10/05 02:56:56;;;;;;;3.30;2.77;;;6.40;99.90;5.80;97690.00;;;;5052073;28;20236;-87
2022/10/05 02:59:53;;;;;;;7.87;2.70;;;5.30;99.90;5.60;97688.00;;;;5053804;28;20234;-88
2022/10/05 03:02:50;;;;;;;3.07;2.80;;;5.10;99.90;5.80;97680.00;;;;5042078;28;20247;-87
2022/10/05 03:05:47;;;;;;;5.60;2.90;;;5.20;99.90;6.10;97687.00;;;;5043288;28;20205;-87
2022/10/05 03:08:46;;;;;;;5.90;2.90;;;5.60;99.90;6.20;97690.00;;;;5053905;28;20208;-88
2022/10/05 03:11:44;;;;;;;6.37;2.50;;;5.10;99.90;6.00;97681.00;;;;5055703;28;20213;-88
2022/10/05 03:14:45;;;;;;;3.13;2.83;;;5.10;99.90;6.30;97682.00;;;;5045119;28;20281;-88
2022/10/05 03:17:44;;;;;;;5.50;2.87;;;5.20;99.90;6.40;97685.00;;;;5048338;28;20254;-88
2022/10/05 03:20:43;;;;;;;3.67;2.67;;;6.00;99.90;6.50;97679.00;;;;5046546;28;20903;-88
2022/10/05 03:23:44;;;;;;;2.83;2.63;;;5.30;99.90;6.30;97678.00;;;;5055110;28;20706;-88
2022/10/05 03:26:44;;;;;;;3.73;2.50;;;5.60;99.90;6.10;97680.00;;;;5052823;28;20205;-88
2022/10/05 03:29:40;;;;;;;3.53;3.30;;;6.20;99.90;5.80;97668.00;;;;5052273;28;20208;-87
2022/10/05 03:32:40;;;;;;;4.30;2.93;;;5.70;99.90;5.50;97658.00;;;;5041622;28;20740;-87
2022/10/05 03:35:34;;;;;;;4.80;3.10;;;6.90;99.90;5.60;97661.00;;;;5049523;28;20209;-88
2022/10/05 03:38:35;;;;;;;3.53;3.00;;;5.70;99.90;5.40;97662.00;;;;5055333;28;20283;-88
2022/10/05 03:41:32;;;;;;;2.73;2.50;;;6.00;99.90;5.30;97662.00;;;;5056202;28;20227;-87
2022/10/05 03:44:35;;;;;;;4.80;2.80;;;4.70;99.90;5.60;97669.00;;;;5056217;28;20447;-88
2022/10/05 03:47:36;;;;;;;4.20;2.10;;;5.90;99.90;5.60;97665.00;;;;5049568;28;20425;-88
2022/10/05 03:50:42;;;;;;;3.67;2.47;;;4.70;99.90;5.20;97662.00;;;;5056716;28;20282;-87
2022/10/05 03:53:38;;;;;;;2.43;2.23;;;3.80;99.90;5.10;97662.00;;;;5057668;28;20467;-88
2022/10/05 03:56:35;;;;;;;2.90;2.67;;;6.40;99.90;4.90;97660.00;;;;5037616;28;20496;-87
2022/10/05 03:59:29;;;;;;;3.60;2.47;;;4.40;99.90;5.00;97650.00;;;;5046099;28;20979;-89
2022/10/05 04:02:26;;;;;;;3.40;3.10;;;4.40;99.90;5.20;97664.00;;;;5051023;28;20439;-88
2022/10/05 04:05:20;;;;;;;3.17;2.53;;;4.50;99.90;5.20;97663.00;;;;5055193;28;20993;-87
2022/10/05 04:08:20;;;;;;;3.13;2.77;;;4.50;99.90;5.40;97658.00;;;;5055943;28;20449;-89
2022/10/05 04:11:14;;;;;;;3.30;2.43;;;4.60;99.90;5.70;97667.00;;;;5054144;28;20459;-88
2022/10/05 04:14:09;;;;;;;5.43;2.90;;;4.80;99.90;5.80;97661.00;;;;5050274;28;20501;-88
2022/10/05 04:17:04;;;;;;;4.90;3.03;;;4.70;99.90;5.20;97648.00;;;;5045337;28;20498;-89
2022/10/05 04:20:00;;;;;;;2.93;2.63;;;5.10;99.90;5.00;97650.00;;;;5047884;28;20435;-88
2022/10/05 04:23:00;;;;;;;2.70;2.43;;;4.60;99.90;5.00;97657.00;;;;5036252;28;20553;-89
2022/10/05 04:25:53;;;;;;;5.13;2.83;;;5.50;99.90;5.30;97651.00;;;;5043837;28;20926;-88
2022/10/05 04:28:54;;;;;;;3.43;2.77;;;5.60;99.90;5.00;97653.00;;;;5036748;28;20501;-89
2022/10/05 04:32:00;;;;;;;3.17;2.80;;;4.80;99.90;5.10;97648.00;;;;5048231;28;20528;-88
2022/10/05 04:35:08;;;;;;;4.47;2.93;;;4.40;99.90;5.10;97654.00;;;;5044610;28;20518;-89
2022/10/05 04:38:11;;;;;;;5.70;3.37;;;4.50;99.90;5.20;97669.00;;;;5039918;28;20500;-89
2022/10/05 04:41:21;;;;;;;2.93;2.00;;;5.70;99.90;5.30;97665.00;;;;5041016;28;20541;-89
2022/10/05 04:44:35;;;;;;;5.47;3.47;;;4.70;99.90;5.60;97654.00;;;;5044640;28;20436;-89
2022/10/05 04:48:15;;;;;;;2.83;2.40;;;5.10;99.90;5.50;97655.00;;;;5039587;28;20524;-90
2022/10/05 04:51:28;;;;;;;3.53;2.83;;;4.70;99.90;5.30;97659.00;;;;5045188;28;21290;-89
2022/10/05 04:54:26;;;;;;;3.10;2.70;;;4.80;99.90;5.30;97657.00;;;;5039817;28;20890;-89
2022/10/05 04:57:23;;;;;;;2.40;2.20;;;5.00;99.90;4.90;97655.00;;;;5051021;28;20435;-88
2022/10/05 05:00:25;;;;;;;3.10;2.77;;;4.30;99.90;4.60;97645.00;;;;5046089;28;20432;-89
2022/10/05 05:03:41;;;;;;;2.87;2.07;;;4.50;99.90;4.70;97664.00;;;;5048762;28;20476;-89
2022/10/05 05:06:45;;;;;;;2.10;1.50;;;4.30;99.90;4.60;97657.00;;;;5048123;28;20409;-89
2022/10/05 05:10:19;;;;;;;2.73;2.30;;;4.30;99.90;4.70;97659.00;;;;5043839;28;20431;-89
2022/10/05 05:13:29;;;;;;;9.77;6.77;;;4.40;99.90;5.20;97672.00;;;;5047605;28;20958;-89
2022/10/05 05:16:33;;;;;;;6.97;4.07;;;4.50;99.90;4.90;97669.00;;;;5043080;28;20435;-88
2022/10/05 05:19:39;;;;;;;4.73;3.90;;;4.40;99.90;4.70;97673.00;;;;5038432;28;20432;-89
2022/10/05 05:22:40;;;;;;;3.70;3.37;;;4.30;99.90;4.70;97670.00;;;;5044979;28;20529;-91
2022/10/05 05:25:42;;;;;;;2.93;2.63;;;4.30;99.90;4.90;97679.00;;;;5044031;28;20431;-89
2022/10/05 05:28:42;;;;;;;6.33;3.10;;;4.40;99.90;5.00;97674.00;;;;5044118;28;20446;-87
2022/10/05 05:31:43;;;;;;;4.87;3.20;;;4.40;99.90;5.10;97671.00;;;;5045051;28;20450;-89
2022/10/05 05:34:46;;;;;;;4.00;3.63;;;5.10;99.90;5.10;97690.00;;;;5041948;28;20475;-87
2022/10/05 05:37:43;;;;;;;3.27;2.70;;;4.70;99.90;5.50;97683.00;;;;5042182;28;20422;-89
2022/10/05 05:40:38;;;;;;;5.37;3.50;;;4.90;99.90;5.80;97674.00;;;;5044566;28;20486;-90
2022/10/05 05:43:34;;;;;;;3.10;2.80;;;4.90;99.90;5.70;97676.00;;;;5042453;28;20804;-91
2022/10/05 05:46:28;;;;;;;4.20;3.80;;;5.10;99.90;5.50;97683.00;;;;5046382;28;20440;-89
2022/10/05 05:49:42;;;;;;;3.00;2.63;;;6.40;99.90;5.20;97672.00;;;;5039526;28;20432;-90
2022/10/05 05:52:35;;;;;;;8.67;3.57;;;4.80;99.90;5.20;97678.00;;;;5049830;28;20423;-89
2022/10/05 05:55:42;;;;;;;2.67;2.33;;;5.50;99.90;5.00;97669.00;;;;5049840;28;20974;-91
2022/10/05 05:58:35;;;;;;;3.67;2.80;;;5.40;99.90;5.40;97678.00;;;;5036833;28;20428;-89
2022/10/05 06:01:31;;;;;;;2.53;2.33;;;6.20;99.90;5.40;97685.00;;;;5040767;28;20864;-89
2022/10/05 06:04:31;;;;;;;6.90;3.53;;;4.80;99.90;5.70;97678.00;;;;5043436;28;20986;-89
2022/10/05 06:07:25;;;;;;;4.70;3.30;;;4.90;99.90;5.90;97686.00;;;;5038264;28;20443;-92
2022/10/05 06:10:29;;;;;;;3.20;2.70;;;5.00;99.90;5.80;97698.00;;;;5043086;28;20484;-90
2022/10/05 06:13:23;;;;;;;4.57;3.53;;;5.10;99.90;5.80;97695.00;;;;5042829;28;20481;-88
2022/10/05 06:16:19;;;;;;;5.87;3.43;;;6.20;99.90;6.00;97687.00;;;;5040080;28;20428;-88
2022/10/05 06:19:12;;;;;;;4.57;2.67;;;5.20;99.90;6.10;97690.00;;;;5048765;28;20675;-90
2022/10/05 06:22:11;;;;;;;3.63;3.27;;;5.30;99.90;6.20;97686.00;;;;5049321;28;20447;-90
2022/10/05 06:25:18;;;;;;;3.47;3.17;;;5.40;99.90;6.50;97682.00;;;;5042414;28;20201;-90
2022/10/05 06:28:10;;;;;;;7.50;3.60;;;6.50;99.90;6.70;97686.00;;;;5036251;28;20664;-89
2022/10/05 06:31:12;;;;;;;10.30;4.30;;;5.80;99.90;6.90;97685.00;;;;5045812;28;20227;-89
2022/10/05 06:34:18;;;;;;;7.50;5.07;;;5.80;99.90;7.20;97694.00;;;;5048613;28;20225;-89
2022/10/05 06:37:15;;;;;;;5.97;4.70;;;5.70;99.90;7.30;97698.00;;;;5034118;28;20201;-89
2022/10/05 06:40:16;;;;;;;5.27;3.60;;;6.10;99.90;7.40;97707.00;;;;5044126;28;20256;-91
2022/10/05 06:43:36;;;;;;;6.27;4.93;;;6.30;99.90;7.50;97691.00;;;;5043082;28;20235;-89
2022/10/05 06:46:31;;;;;;;12.43;6.37;;;6.50;99.90;7.80;97699.00;;;;5043513;28;20710;-89
2022/10/05 06:49:25;;;;;;;11.43;6.20;;;6.60;99.90;7.80;97697.00;;;;5036921;28;20208;-91
2022/10/05 06:52:26;;;;;;;13.50;6.93;;;6.80;99.90;8.10;97701.00;;;;5035644;28;20570;-90
2022/10/05 06:55:24;;;;;;;14.47;6.77;;;6.90;99.90;8.00;97699.00;;;;5048141;28;20279;-89
2022/10/05 06:58:36;;;;;;;7.30;6.30;;;7.10;99.90;8.40;97705.00;;;;5044924;28;20232;-89
2022/10/05 07:01:44;;;;;;;8.93;5.83;;;7.20;99.90;8.40;97704.00;;;;5041436;28;20225;-90
2022/10/05 07:05:06;;;;;;;7.30;5.63;;;7.30;99.90;8.70;97708.00;;;;5031134;28;20687;-89
2022/10/05 07:07:59;;;;;;;7.60;6.17;;;7.50;99.90;9.00;97714.00;;;;5040705;28;20201;-90
2022/10/05 07:11:06;;;;;;;13.63;7.50;;;7.70;99.90;9.50;97707.00;;;;5045205;28;20331;-89
2022/10/05 07:14:14;;;;;;;10.83;5.60;;;8.00;99.90;9.80;97707.00;;;;5046487;28;20236;-89
2022/10/05 07:17:41;;;;;;;7.17;5.90;;;8.20;99.90;9.50;97713.00;;;;5050667;28;20306;-91
2022/10/05 07:20:34;;;;;;;8.00;6.20;;;8.50;99.90;9.30;97706.00;;;;5042789;28;20217;-91
2022/10/05 07:23:40;;;;;;;7.77;6.57;;;8.50;99.90;9.80;97711.00;;;;5039844;28;20202;-88
2022/10/05 07:26:39;;;;;;;9.77;6.27;;;8.60;99.90;10.10;97726.00;;;;5043809;28;20258;-90
2022/10/05 07:29:38;;;;;;;13.40;7.10;;;8.80;99.90;10.30;97730.00;;;;5044351;28;20315;-91
2022/10/05 07:32:35;;;;;;;15.07;8.27;;;9.00;99.90;10.60;97725.00;;;;5041992;28;20189;-92
2022/10/05 07:38:53;;;;;;;11.10;5.50;;;9.30;99.90;11.40;97723.00;;;;5044509;28;20356;-91
2022/10/05 07:41:47;;;;;;;6.57;5.20;;;9.70;99.90;11.40;97723.00;;;;5044245;28;20615;-90
2022/10/05 07:44:41;;;;;;;10.93;5.43;;;9.90;99.90;11.80;97725.00;;;;5038746;28;20201;-91
2022/10/05 07:47:37;;;;;;;8.23;6.30;;;10.10;99.90;11.80;97713.00;;;;5046962;28;20196;-89
2022/10/05 07:50:34;;;;;;;9.03;5.87;;;10.40;99.90;12.20;97712.00;;;;5045971;28;20220;-90
2022/10/05 07:53:31;;;;;;;7.07;4.97;;;10.70;99.90;12.60;97707.00;;;;5045068;28;20268;-91
2022/10/05 07:56:33;;;;;;;6.20;5.57;;;10.90;99.90;13.00;97707.00;;;;5046112;28;20258;-89
2022/10/05 07:59:30;;;;;;;9.30;5.57;;;11.10;99.90;13.00;97704.00;;;;5049217;28;20246;-90
2022/10/05 08:02:25;;;;;;;9.67;4.63;;;11.40;99.90;13.10;97709.00;;;;5048243;28;20225;-90
2022/10/05 08:05:22;;;;;;;8.07;5.70;;;11.50;99.90;13.40;97702.00;;;;5046061;28;20701;-91
2022/10/05 08:08:23;;;;;;;8.47;4.97;;;11.80;99.90;13.50;97713.00;;;;5037762;28;20625;-90
2022/10/05 08:11:17;;;;;;;7.67;4.67;;;12.00;99.90;14.00;97711.00;;;;5050260;28;20289;-90
2022/10/05 08:14:15;;;;;;;8.57;4.70;;;12.20;99.90;14.20;97708.00;;;;5040260;28;20442;-91
2022/10/05 08:17:17;;;;;;;6.47;4.97;;;12.40;99.90;14.50;97711.00;;;;5038344;28;20208;-89
2022/10/05 08:20:43;;;;;;;6.43;3.83;;;12.60;99.90;14.70;97712.00;;;;5049600;28;20259;-90
2022/10/05 08:23:43;;;;;;;5.93;4.80;;;12.90;99.90;14.90;97719.00;;;;5035502;28;20197;-90
2022/10/05 08:26:41;;;;;;;6.57;4.43;;;13.10;99.90;15.00;97719.00;;;;5045461;28;20469;-89
2022/10/05 08:29:37;;;;;;;5.87;3.90;;;13.30;99.90;15.10;97709.00;;;;5046497;28;20205;-89
2022/10/05 08:32:30;;;;;;;7.80;5.40;;;13.40;99.90;15.30;97715.00;;;;5037948;28;20217;-90
2022/10/05 08:35:32;;;;;;;6.27;4.60;;;13.60;99.90;15.40;97715.00;;;;5043643;28;20225;-86
2022/10/05 08:38:30;;;;;;;6.23;4.50;;;13.70;99.90;15.70;97716.00;;;;5043612;28;20204;-86
2022/10/05 08:41:55;;;;;;;7.10;5.07;;;13.90;99.90;15.50;97728.00;;;;5047904;28;20282;-87
2022/10/05 08:45:32;;;;;;;6.97;4.63;;;14.00;99.90;16.00;97727.00;;;;5040593;28;20209;-86
2022/10/05 08:49:03;;;;;;;6.53;4.33;;;14.10;99.90;16.10;97714.00;;;;5050278;28;20217;-86
2022/10/05 08:52:18;;;;;;;6.00;5.03;;;14.40;99.90;16.40;97727.00;;;;5039247;28;20213;-86
2022/10/05 08:55:31;;;;;;;6.30;4.50;;;14.50;99.90;16.40;97721.00;;;;5044938;28;20220;-86
2022/10/05 08:58:44;;;;;;;5.67;4.40;;;14.70;99.90;17.00;97730.00;;;;5043240;28;20658;-86
2022/10/05 09:01:54;;;;;;;8.70;4.00;;;14.90;99.90;17.10;97746.00;;;;5043882;28;20225;-87
2022/10/05 09:05:00;;;;;;;5.73;3.70;;;15.10;99.90;17.10;97731.00;;;;5044258;28;20204;-87
2022/10/05 09:08:16;;;;;;;5.30;3.80;;;15.30;99.90;17.40;97722.00;;;;5044840;28;20721;-86
2022/10/05 09:11:11;;;;;;;13.10;4.43;;;15.60;99.90;17.30;97711.00;;;;5044803;28;20635;-87
2022/10/05 09:14:30;;;;;;;9.97;4.67;;;15.70;99.90;17.60;97727.00;;;;5051545;28;20238;-87
2022/10/05 09:17:31;;;;;;;4.87;3.50;;;15.80;99.90;17.80;97721.00;;;;5050735;28;20201;-86
2022/10/05 09:20:31;;;;;;;7.23;4.27;;;16.00;99.90;18.00;97715.00;;;;5051010;28;20231;-86
2022/10/05 09:23:38;;;;;;;4.70;3.63;;;16.20;99.90;18.60;97722.00;;;;5048703;28;20692;-85
2022/10/05 09:26:43;;;;;;;5.47;3.73;;;16.40;99.90;18.40;97723.00;;;;5045512;28;20275;-85
2022/10/05 09:30:19;;;;;;;4.53;3.80;;;16.60;99.90;18.70;97721.00;;;;5049922;28;20200;-86
2022/10/05 09:34:02;;;;;;;6.67;4.03;;;16.70;99.90;19.00;97719.00;;;;5028489;28;20265;-86
2022/10/05 09:37:31;;;;;;;7.90;3.77;;;16.90;99.90;19.00;97730.00;;;;5033569;28;20274;-85
2022/10/05 09:40:59;;;;;;;8.70;3.87;;;17.20;99.90;19.30;97725.00;;;;5034611;28;20207;-85
2022/10/05 09:44:32;;;;;;;5.60;3.73;;;17.30;99.90;19.70;97722.00;;;;5045229;28;20687;-86
2022/10/05 09:48:04;;;;;;;4.80;3.30;;;17.50;99.90;19.90;97723.00;;;;5045984;28;20212;-86
2022/10/05 09:51:24;;;;;;;3.70;3.17;;;17.70;99.90;19.80;97712.00;;;;5041528;28;20259;-86
2022/10/05 09:55:04;;;;;;;6.30;3.50;;;17.90;99.90;19.90;97706.00;;;;5037513;28;20631;-86
2022/10/05 09:58:39;;;;;;;3.80;2.90;;;18.00;99.90;20.30;97719.00;;;;5043924;28;20571;-87
2022/10/05 10:01:52;;;;;;;5.00;3.37;;;18.30;99.90;20.50;97706.00;;;;5042203;28;20244;-85
2022/10/05 10:05:10;;;;;;;3.43;2.87;;;18.50;99.90;21.20;97715.00;;;;5041434;28;20204;-86
2022/10/05 10:08:23;;;;;;;4.47;3.10;;;18.90;99.90;21.30;97716.00;;;;5035427;28;20698;-86
2022/10/05 10:11:37;;;;;;;6.53;3.37;;;19.10;99.90;21.30;97699.00;;;;5041981;28;20220;-87
2022/10/05 10:15:11;;;;;;;3.43;3.13;;;19.30;99.90;21.90;97690.00;;;;5039331;28;20246;-87
2022/10/05 10:18:47;;;;;;;3.00;2.70;;;19.40;99.90;22.30;97707.00;;;;5045788;28;20200;-87
2022/10/05 10:22:08;;;;;;;5.73;3.43;;;19.70;99.90;22.60;97694.00;;;;5038909;28;20331;-87
2022/10/05 10:25:20;;;;;;;6.20;3.03;;;20.10;99.90;22.50;97698.00;;;;5014968;28;20554;-87
2022/10/05 10:28:55;;;;;;;3.93;3.23;;;20.20;99.90;23.10;97689.00;;;;5037976;28;20499;-87
2022/10/05 10:32:19;;;;;;;4.43;2.30;;;20.50;99.90;23.50;97680.00;;;;4980396;28;20699;-87
2022/10/05 10:35:22;;;;;;;3.50;3.00;;;20.90;98.10;23.80;97694.00;;;;5029128;28;20205;-87
2022/10/05 10:38:30;;;;;;;3.83;2.77;;;21.30;98.10;23.90;97686.00;;;;5034209;28;20204;-86
2022/10/05 10:42:00;;;;;;;2.70;2.43;;;21.50;95.20;22.30;97676.00;;;;5051953;28;20310;-87
2022/10/05 10:45:11;;;;;;;6.17;2.60;;;21.50;92.50;24.10;97689.00;;;;5048991;28;20204;-87
2022/10/05 10:48:04;;;;;;;4.70;3.20;;;21.70;94.30;24.20;97687.00;;;;5041136;28;20428;-87
2022/10/05 10:51:14;;;;;;;3.70;2.90;;;22.00;93.80;24.40;97685.00;;;;5051383;28;20759;-87
2022/10/05 10:54:44;;;;;;;3.47;2.53;;;22.30;93.30;24.10;97686.00;;;;5039822;28;20201;-87
2022/10/05 10:57:54;;;;;;;3.33;2.57;;;22.30;93.20;24.40;97684.00;;;;5049110;28;20313;-87
2022/10/05 11:00:53;;;;;;;3.30;2.70;;;22.60;91.40;24.70;97674.00;;;;5041837;28;20231;-87
2022/10/05 11:04:29;;;;;;;3.53;2.77;;;22.80;90.70;25.30;97670.00;;;;5051593;28;20201;-87
2022/10/05 11:07:58;;;;;;;6.23;3.17;;;23.00;90.50;25.00;97684.00;;;;5051889;28;20200;-87
2022/10/05 11:11:31;;;;;;;3.00;2.70;;;23.30;88.40;25.40;97686.00;;;;5042612;28;20253;-86
2022/10/05 11:14:46;;;;;;;4.60;3.33;;;23.30;89.70;25.40;97680.00;;;;5036210;28;20208;-87
2022/10/05 11:17:58;;;;;;;5.80;2.90;;;23.50;89.60;25.30;97693.00;;;;5044695;28;20217;-88
2022/10/05 11:21:20;;;;;;;4.00;3.43;;;23.40;88.50;25.20;97696.00;;;;5046818;28;20216;-87
2022/10/05 11:24:49;;;;;;;3.20;2.90;;;23.40;86.30;25.60;97677.00;;;;5043615;28;20344;-87
2022/10/05 11:28:19;;;;;;;4.77;2.87;;;23.40;87.90;25.10;97672.00;;;;5036876;28;20294;-87
2022/10/05 11:31:42;;;;;;;3.90;2.70;;;23.40;85.30;25.70;97673.00;;;;5048568;28;20222;-87
2022/10/05 11:35:17;;;;;;;3.60;3.30;;;23.50;86.40;26.10;97656.00;;;;5056083;28;20210;-87
2022/10/05 11:38:48;;;;;;;6.23;2.70;;;23.80;86.40;25.90;97657.00;;;;5064553;28;20228;-88
2022/10/05 11:42:19;;;;;;;3.97;2.77;;;24.00;81.60;26.80;97659.00;;;;5060804;28;20233;-86
2022/10/05 11:45:24;;;;;;;3.23;2.30;;;24.10;84.10;26.70;97654.00;;;;5043096;28;20761;-87
2022/10/05 11:48:59;;;;;;;4.70;2.80;;;24.50;81.60;26.50;97680.00;;;;5073146;28;20374;-88
2022/10/05 11:51:57;;;;;;;4.97;2.70;;;24.50;81.20;25.90;97669.00;;;;5066255;28;20226;-87
2022/10/05 11:55:13;;;;;;;5.57;2.90;;;24.30;81.20;25.50;97675.00;;;;5072755;28;20209;-88
2022/10/05 11:58:12;;;;;;;5.67;2.70;;;24.10;81.50;25.60;97662.00;;;;5061228;28;20197;-88
2022/10/05 12:01:11;;;;;;;3.77;2.90;;;23.90;82.00;25.70;97668.00;;;;5059699;28;20244;-87
2022/10/05 12:04:15;;;;;;;3.83;2.60;;;23.80;82.20;26.00;97669.00;;;;5065989;28;20197;-88
2022/10/05 12:07:15;;;;;;;4.93;2.57;;;23.80;81.40;25.80;97675.00;;;;5067811;28;20212;-87
2022/10/05 12:10:27;;;;;;;4.30;2.93;;;23.80;82.00;25.40;97674.00;;;;5071368;28;20223;-87
2022/10/05 12:13:28;;;;;;;4.03;3.60;;;23.80;81.10;25.30;97672.00;;;;5065684;28;20190;-87
2022/10/05 12:16:25;;;;;;;3.40;2.97;;;23.60;81.50;25.10;97666.00;;;;5051797;28;20193;-86
2022/10/05 12:19:24;;;;;;;2.90;2.60;;;23.50;82.00;25.20;97663.00;;;;5040164;28;20215;-89
2022/10/05 12:22:19;;;;;;;3.50;3.20;;;23.60;81.70;24.40;97658.00;;;;5044803;28;20225;-86
2022/10/05 12:25:25;;;;;;;9.20;3.73;;;23.40;82.00;24.50;97664.00;;;;5043549;28;20206;-87
2022/10/05 12:28:22;;;;;;;4.50;3.10;;;23.20;82.50;25.00;97665.00;;;;5044153;28;20614;-87
2022/10/05 12:31:30;;;;;;;4.90;3.57;;;23.10;84.20;24.10;97661.00;;;;5040404;28;20265;-87
2022/10/05 12:34:43;;;;;;;8.43;4.47;;;23.00;84.70;24.30;97658.00;;;;5035267;28;20197;-86
2022/10/05 12:37:46;;;;;;;6.13;3.17;;;22.90;84.70;24.30;97654.00;;;;5046520;28;20677;-87
2022/10/05 12:40:45;;;;;;;7.20;4.37;;;22.80;84.40;24.50;97666.00;;;;5041894;28;20217;-89
2022/10/05 12:43:49;;;;;;;5.40;3.63;;;22.80;85.20;24.90;97661.00;;;;5040681;28;20213;-89
2022/10/05 12:46:46;;;;;;;4.30;2.73;;;22.70;86.50;25.10;97673.00;;;;5038381;28;20218;-89
2022/10/05 12:49:58;;;;;;;4.70;3.00;;;22.80;86.70;25.10;97674.00;;;;5039133;28;20196;-89
2022/10/05 12:53:01;;;;;;;7.00;3.50;;;22.90;87.10;25.10;97668.00;;;;5037548;28;20590;-88
2022/10/05 12:56:00;;;;;;;4.40;3.47;;;22.90;87.50;24.80;97672.00;;;;5038349;28;20223;-90
2022/10/05 12:58:57;;;;;;;4.93;3.03;;;22.90;87.50;24.90;97671.00;;;;5046538;28;20210;-88
2022/10/05 13:01:55;;;;;;;5.70;2.90;;;22.90;88.60;24.90;97667.00;;;;5046234;28;20276;-88
2022/10/05 13:04:53;;;;;;;3.20;2.80;;;22.90;87.90;24.90;97673.00;;;;5040982;28;20197;-87
2022/10/05 13:08:02;;;;;;;5.60;3.27;;;22.90;88.20;24.90;97669.00;;;;5043881;28;20899;-87
2022/10/05 13:11:01;;;;;;;7.40;3.30;;;22.80;88.70;25.10;97671.00;;;;5046808;28;20605;-89
2022/10/05 13:14:08;;;;;;;4.07;3.37;;;22.90;89.70;24.90;97666.00;;;;5033966;28;20199;-90
2022/10/05 13:17:06;;;;;;;3.60;3.13;;;22.90;89.40;24.70;97660.00;;;;5045303;28;20247;-90
2022/10/05 13:20:02;;;;;;;7.33;3.57;;;22.90;88.70;25.10;97660.00;;;;5038684;28;20220;-89
2022/10/05 13:23:00;;;;;;;4.17;3.53;;;22.90;88.60;25.60;97659.00;;;;5033246;28;20195;-90
2022/10/05 13:25:57;;;;;;;8.47;3.57;;;23.10;89.40;25.70;97661.00;;;;5033729;28;20596;-90
2022/10/05 13:28:59;;;;;;;5.30;3.10;;;23.40;88.30;25.90;97654.00;;;;5043141;28;20203;-89
2022/10/05 13:31:55;;;;;;;5.57;3.47;;;22.30;86.20;25.90;97660.00;;;;5033512;28;20220;-90
2022/10/05 13:34:57;;;;;;;4.73;3.23;;;23.40;86.10;25.40;97667.00;;;;5042495;28;20201;-90
2022/10/05 13:38:00;;;;;;;3.23;2.67;;;23.50;86.10;25.40;97669.00;;;;5047223;28;20251;-90
2022/10/05 13:41:00;;;;;;;5.23;3.00;;;23.40;86.40;25.40;97665.00;;;;5043287;28;20218;-90
2022/10/05 13:44:25;;;;;;;4.10;3.10;;;23.30;86.90;25.80;97662.00;;;;5039984;28;20212;-89
2022/10/05 13:47:37;;;;;;;3.80;2.57;;;23.40;87.80;25.70;97664.00;;;;5039693;28;20225;-89
2022/10/05 13:50:30;;;;;;;5.20;3.07;;;23.50;85.70;25.70;97671.00;;;;5040111;28;20696;-90
2022/10/05 13:53:31;;;;;;;5.47;3.20;;;23.60;86.40;25.40;97666.00;;;;5038357;28;20203;-90